Overview Statistics Trail Chart Weather Telemetry Raw packets
 

This is the latest recevied weather packets stored in our database for station/object K1BES. If no packets are shown the sender has not sent any weather packets the latest 10 day(s).

<< 3 4 5 6 7 8 9 >>
Time Temp. Humidity Pressure Rain* Wind** Luminosity Snow
1788622571 33.33° C 66% 1017.2 hPa 0 mm - 713 W/m² -
1788622266 33.33° C 67% 1017.2 hPa 0 mm - 901 W/m² -
1788621961 32.78° C 71% 1017 hPa 0 mm - 861 W/m² -
1788621656 32.78° C 71% 1017.4 hPa 0 mm - 860 W/m² -
1788621351 32.78° C 70% 1017.3 hPa 0 mm - 834 W/m² -
1788621046 32.78° C 72% 1017.2 hPa 0 mm - 872 W/m² -
1788620741 31.67° C 75% 1017.2 hPa 0 mm - 816 W/m² -
1788620434 32.22° C 74% 1016.9 hPa 0 mm - 268 W/m² -
1788620133 32.22° C 72% 1017.2 hPa 0 mm - 501 W/m² -
1788619832 32.22° C 74% 1017.2 hPa 0 mm - 743 W/m² -
1788619528 32.22° C 72% 1017.2 hPa 0 mm - 665 W/m² -
1788619226 32.78° C 73% 1017.1 hPa 0 mm - 438 W/m² -
1788618926 32.78° C 71% 1017.4 hPa 0 mm - 613 W/m² -
1788618621 33.33° C 69% 1017.3 hPa 0 mm - 700 W/m² -
1788618320 33.89° C 66% 1017.2 hPa 0 mm - 692 W/m² -
1788618015 33.33° C 68% 1017.2 hPa 0 mm - 683 W/m² -
1788617715 33.33° C 69% 1017 hPa 0 mm - 650 W/m² -
1788617412 33.33° C 71% 1017.3 hPa 0 mm - 615 W/m² -
1788617106 32.78° C 73% 1017 hPa 0 mm - 594 W/m² -
1788616805 32.78° C 73% 1016.7 hPa 0 mm - 594 W/m² -
1788616501 32.78° C 74% 1016.7 hPa 0 mm - 541 W/m² -
1788616196 32.22° C 75% 1016.9 hPa 0 mm - 508 W/m² -
1788615895 32.78° C 73% 1017 hPa 0 mm - 443 W/m² -
1788615595 32.78° C 73% 1017.1 hPa 0 mm - 414 W/m² -
1788615290 32.78° C 73% 1017.2 hPa 0 mm - 421 W/m² -

* Rain latest hour (hover to see other rain measurements)
** Current wind speed in m/s (hover to see current wind gust speed)